createdAt,value
2017-10-31T00:00:26.132Z,0
2017-10-31T00:01:18.226Z,0
2017-10-31T00:02:10.651Z,0
2017-10-31T00:04:37.633Z,0
2017-10-31T00:05:31.000Z,0
2017-10-31T00:06:23.557Z,0
2017-10-31T00:07:15.981Z,0
2017-10-31T00:08:09.540Z,0
2017-10-31T00:09:04.181Z,0
2017-10-31T00:09:57.625Z,0
2017-10-31T00:10:50.135Z,0
2017-10-31T00:11:42.577Z,0
2017-10-31T00:12:36.095Z,0
2017-10-31T00:13:28.826Z,0
2017-10-31T00:14:22.405Z,0
2017-10-31T00:15:16.492Z,0
2017-10-31T00:16:09.765Z,0
2017-10-31T00:17:02.998Z,0
2017-10-31T00:17:56.586Z,0
2017-10-31T00:18:48.840Z,0
2017-10-31T00:19:41.546Z,0
2017-10-31T00:20:34.170Z,0
2017-10-31T00:21:26.583Z,0
2017-10-31T00:22:18.825Z,0
2017-10-31T00:23:10.625Z,0
2017-10-31T00:24:03.956Z,0
2017-10-31T00:24:56.501Z,0
2017-10-31T00:25:49.254Z,0
2017-10-31T00:26:42.043Z,0
2017-10-31T00:27:33.928Z,0
2017-10-31T00:28:26.150Z,0
2017-10-31T00:29:18.537Z,0
2017-10-31T00:30:08.713Z,0
2017-10-31T00:30:48.736Z,0
2017-10-31T00:31:29.080Z,0
2017-10-31T00:32:09.463Z,0
2017-10-31T00:32:49.951Z,0
2017-10-31T00:33:30.329Z,0
2017-10-31T00:34:10.800Z,0
2017-10-31T00:34:51.227Z,0
2017-10-31T00:35:31.604Z,0
2017-10-31T00:36:11.966Z,0
2017-10-31T00:36:52.413Z,0
2017-10-31T00:37:32.871Z,0
2017-10-31T00:38:13.259Z,0
2017-10-31T00:38:53.644Z,0
2017-10-31T00:39:34.153Z,0
2017-10-31T00:40:14.577Z,0
2017-10-31T00:40:54.981Z,0
2017-10-31T00:41:35.365Z,0
2017-10-31T00:42:15.740Z,0
2017-10-31T00:42:56.189Z,0
2017-10-31T00:43:36.645Z,0
2017-10-31T00:44:17.035Z,0
2017-10-31T00:44:57.537Z,0
2017-10-31T00:45:37.957Z,0
2017-10-31T00:46:18.461Z,0
2017-10-31T00:46:58.881Z,0
2017-10-31T00:47:39.308Z,0
2017-10-31T00:48:19.871Z,0
2017-10-31T00:49:00.240Z,0
2017-10-31T00:49:40.631Z,0
2017-10-31T00:50:21.147Z,0
2017-10-31T00:51:01.632Z,0
2017-10-31T00:51:41.964Z,0
2017-10-31T00:52:22.318Z,0
2017-10-31T00:53:02.753Z,0
2017-10-31T00:53:43.122Z,0
2017-10-31T00:54:23.615Z,0
2017-10-31T00:55:04.069Z,0
2017-10-31T00:55:44.551Z,0
2017-10-31T00:56:24.974Z,0
2017-10-31T00:57:05.417Z,0
2017-10-31T00:57:45.825Z,0
2017-10-31T00:58:26.226Z,0
2017-10-31T00:59:06.713Z,0
2017-10-31T00:59:47.076Z,0
2017-10-31T01:00:27.486Z,0
2017-10-31T01:01:07.900Z,0
2017-10-31T01:01:48.335Z,0
2017-10-31T01:02:28.684Z,0
2017-10-31T01:03:08.999Z,0
2017-10-31T01:03:49.500Z,0
2017-10-31T01:04:29.848Z,0
2017-10-31T01:05:10.246Z,0
2017-10-31T01:05:50.605Z,0
2017-10-31T01:06:31.103Z,0
2017-10-31T01:07:11.515Z,0
2017-10-31T01:07:51.987Z,0
2017-10-31T01:08:32.361Z,0
2017-10-31T01:09:12.767Z,0
2017-10-31T01:09:53.336Z,0
2017-10-31T01:10:33.771Z,0
2017-10-31T01:11:14.186Z,0
2017-10-31T01:11:54.596Z,0
2017-10-31T01:12:34.953Z,0
2017-10-31T01:13:15.498Z,0
2017-10-31T01:13:55.925Z,0
2017-10-31T01:14:36.293Z,0
2017-10-31T01:15:16.749Z,0
2017-10-31T01:15:57.056Z,0
2017-10-31T01:16:37.477Z,0
2017-10-31T01:17:17.968Z,0
2017-10-31T01:17:58.417Z,0
2017-10-31T01:18:38.784Z,0
2017-10-31T01:19:19.195Z,0
2017-10-31T01:19:59.712Z,0
2017-10-31T01:20:40.107Z,0
2017-10-31T01:21:20.582Z,0
2017-10-31T01:22:00.900Z,0
2017-10-31T01:22:41.329Z,0
2017-10-31T01:23:21.703Z,0
2017-10-31T01:24:02.117Z,0
2017-10-31T01:24:42.537Z,0
2017-10-31T01:25:22.914Z,0
2017-10-31T01:26:03.285Z,0
2017-10-31T01:26:43.768Z,0
2017-10-31T01:27:24.171Z,0
2017-10-31T01:28:04.517Z,0
2017-10-31T01:28:45.168Z,0
2017-10-31T01:29:25.552Z,0
2017-10-31T01:30:05.960Z,0
2017-10-31T01:30:46.318Z,0
2017-10-31T01:31:26.693Z,0
2017-10-31T01:32:07.125Z,0
2017-10-31T01:32:47.562Z,0
2017-10-31T01:33:27.987Z,0
2017-10-31T01:34:08.441Z,0
2017-10-31T01:34:48.888Z,0
2017-10-31T01:35:29.181Z,0
2017-10-31T01:36:09.652Z,0
2017-10-31T01:36:50.009Z,0
2017-10-31T01:37:30.446Z,0
2017-10-31T01:38:10.770Z,0
2017-10-31T01:38:51.173Z,0
2017-10-31T01:39:31.693Z,0
2017-10-31T01:40:12.110Z,0
2017-10-31T01:40:52.544Z,0
2017-10-31T01:41:33.085Z,0
2017-10-31T01:42:13.530Z,0
2017-10-31T01:42:53.936Z,0
2017-10-31T01:43:34.332Z,0
2017-10-31T01:44:14.668Z,0
2017-10-31T01:44:55.133Z,0
2017-10-31T01:45:35.664Z,0
2017-10-31T01:46:16.048Z,0
2017-10-31T01:46:56.457Z,0
2017-10-31T01:47:39.951Z,0
2017-10-31T01:48:19.629Z,0
2017-10-31T01:48:59.854Z,0
2017-10-31T01:49:40.273Z,0
2017-10-31T01:50:21.007Z,0
2017-10-31T01:51:02.129Z,0
2017-10-31T01:51:46.363Z,0
2017-10-31T01:52:26.735Z,0
2017-10-31T01:53:07.188Z,0
2017-10-31T01:53:47.589Z,0
2017-10-31T01:54:27.949Z,0
2017-10-31T01:55:08.310Z,0
2017-10-31T01:55:48.823Z,0
2017-10-31T01:56:29.182Z,0
2017-10-31T01:57:09.776Z,0
2017-10-31T01:57:50.094Z,0
2017-10-31T01:58:30.565Z,0
2017-10-31T01:59:10.949Z,0
2017-10-31T01:59:51.396Z,0
2017-10-31T02:00:31.707Z,0
2017-10-31T02:01:12.191Z,0
2017-10-31T02:01:52.582Z,0
2017-10-31T02:02:33.125Z,0
2017-10-31T02:03:13.545Z,0
2017-10-31T02:03:54.030Z,0
2017-10-31T02:04:34.423Z,0
2017-10-31T02:05:14.829Z,0
2017-10-31T02:05:55.342Z,0
2017-10-31T02:06:35.787Z,0
2017-10-31T02:07:16.233Z,0
2017-10-31T02:07:56.670Z,0
2017-10-31T02:08:37.049Z,0
2017-10-31T02:09:17.508Z,0
2017-10-31T02:09:57.962Z,0
2017-10-31T02:10:38.371Z,0
2017-10-31T02:11:18.768Z,0
2017-10-31T02:11:59.216Z,0
2017-10-31T02:12:39.623Z,0
2017-10-31T02:13:20.531Z,0
2017-10-31T02:14:00.528Z,0
2017-10-31T02:14:40.891Z,0
2017-10-31T02:15:21.321Z,0
2017-10-31T02:16:01.736Z,0
2017-10-31T02:16:42.200Z,0
2017-10-31T02:17:22.572Z,0
2017-10-31T02:18:02.939Z,0
2017-10-31T02:18:43.379Z,0
2017-10-31T02:19:23.800Z,0
2017-10-31T02:20:04.213Z,0
2017-10-31T02:20:44.583Z,0
2017-10-31T02:21:25.047Z,0
2017-10-31T02:22:05.517Z,0
2017-10-31T02:22:45.985Z,0
2017-10-31T02:23:26.472Z,0
2017-10-31T02:24:06.846Z,0
2017-10-31T02:24:47.260Z,0
2017-10-31T02:25:27.769Z,0
2017-10-31T02:26:08.108Z,0
2017-10-31T02:26:48.503Z,0
2017-10-31T02:27:28.882Z,0
2017-10-31T02:28:09.339Z,0
2017-10-31T02:28:49.756Z,0
2017-10-31T02:29:30.162Z,0
2017-10-31T02:30:10.584Z,0
2017-10-31T02:30:51.007Z,0
2017-10-31T02:31:31.354Z,0
2017-10-31T02:32:11.774Z,0
2017-10-31T02:32:52.341Z,0
2017-10-31T02:33:32.865Z,0
2017-10-31T02:34:13.184Z,0
2017-10-31T02:34:53.605Z,0
2017-10-31T02:35:34.137Z,0
2017-10-31T02:36:14.505Z,0
2017-10-31T02:36:54.870Z,0
2017-10-31T02:37:35.319Z,0
2017-10-31T02:38:15.770Z,0
2017-10-31T02:38:56.153Z,0
2017-10-31T02:39:36.590Z,0
2017-10-31T02:40:17.028Z,0
2017-10-31T02:40:57.476Z,0
2017-10-31T02:41:37.812Z,0
2017-10-31T02:42:18.251Z,0
2017-10-31T02:42:58.604Z,0
2017-10-31T02:43:38.961Z,0
2017-10-31T02:44:19.365Z,0
2017-10-31T02:44:59.908Z,0
2017-10-31T02:45:40.341Z,0
2017-10-31T02:46:20.735Z,0
2017-10-31T02:47:01.080Z,0
2017-10-31T02:47:41.489Z,0
2017-10-31T02:48:21.961Z,0
2017-10-31T02:49:02.325Z,0
2017-10-31T02:49:42.680Z,0
2017-10-31T02:50:23.197Z,0
2017-10-31T02:51:03.604Z,0
2017-10-31T02:51:44.048Z,0
2017-10-31T02:52:24.545Z,0
2017-10-31T02:53:04.976Z,0
2017-10-31T02:53:45.400Z,0
2017-10-31T02:54:25.794Z,0
2017-10-31T02:55:06.147Z,0
2017-10-31T02:55:46.578Z,0
2017-10-31T02:56:27.113Z,0
2017-10-31T02:57:07.453Z,0
2017-10-31T02:57:47.880Z,0
2017-10-31T02:58:28.341Z,0
2017-10-31T02:59:08.818Z,0
2017-10-31T02:59:49.281Z,0
2017-10-31T03:00:29.611Z,0
2017-10-31T03:01:10.081Z,0
2017-10-31T03:01:50.414Z,0
2017-10-31T03:02:30.820Z,0
2017-10-31T03:03:11.268Z,0
2017-10-31T03:03:51.633Z,0
2017-10-31T03:04:32.110Z,0
2017-10-31T03:05:12.627Z,0
2017-10-31T03:05:52.991Z,0
2017-10-31T03:06:33.382Z,0
2017-10-31T03:07:13.846Z,0
2017-10-31T03:07:54.233Z,0
2017-10-31T03:08:34.646Z,0
2017-10-31T03:09:15.081Z,0
2017-10-31T03:09:55.495Z,0
2017-10-31T03:10:35.964Z,0
2017-10-31T03:11:16.475Z,0
2017-10-31T03:11:56.909Z,0
2017-10-31T03:12:37.217Z,0
2017-10-31T03:13:17.641Z,0
2017-10-31T03:13:58.091Z,0
2017-10-31T03:14:38.443Z,0
2017-10-31T03:15:18.774Z,0
2017-10-31T03:15:59.210Z,0
2017-10-31T03:16:39.621Z,0
2017-10-31T03:17:20.000Z,0
2017-10-31T03:18:00.461Z,0
2017-10-31T03:18:40.822Z,0
2017-10-31T03:19:21.238Z,0
2017-10-31T03:20:01.683Z,0
2017-10-31T03:20:42.072Z,0
2017-10-31T03:21:22.513Z,0
2017-10-31T03:22:02.964Z,0
2017-10-31T03:22:43.415Z,0
2017-10-31T03:23:23.815Z,0
2017-10-31T03:24:04.268Z,0
2017-10-31T03:24:44.685Z,0
2017-10-31T03:25:25.151Z,0
2017-10-31T03:26:05.623Z,0
2017-10-31T03:26:46.051Z,0
2017-10-31T03:27:26.536Z,0
2017-10-31T03:28:06.940Z,0
2017-10-31T03:28:47.343Z,0
2017-10-31T03:29:27.701Z,0
2017-10-31T03:30:08.087Z,0
2017-10-31T03:30:48.582Z,0
2017-10-31T03:31:28.940Z,0
2017-10-31T03:32:09.336Z,0
2017-10-31T03:32:49.855Z,0
2017-10-31T03:33:30.220Z,0
2017-10-31T03:34:10.682Z,0
2017-10-31T03:34:51.165Z,0
2017-10-31T03:35:31.556Z,0
2017-10-31T03:36:11.997Z,0
2017-10-31T03:36:52.426Z,0
2017-10-31T03:37:32.768Z,0
2017-10-31T03:38:13.188Z,0
2017-10-31T03:38:53.664Z,0
2017-10-31T03:39:34.075Z,0
2017-10-31T03:40:14.491Z,0
2017-10-31T03:40:54.900Z,0
2017-10-31T03:41:35.417Z,0
2017-10-31T03:42:15.756Z,0
2017-10-31T03:42:56.278Z,0
2017-10-31T03:43:36.667Z,0
2017-10-31T03:44:17.104Z,0
2017-10-31T03:44:57.463Z,0
2017-10-31T03:45:37.964Z,0
2017-10-31T03:46:18.349Z,0
2017-10-31T03:46:58.797Z,0
2017-10-31T03:47:39.167Z,0
2017-10-31T03:48:19.611Z,0
2017-10-31T03:48:59.980Z,0
2017-10-31T03:49:40.495Z,0
2017-10-31T03:50:20.891Z,0
2017-10-31T03:51:01.315Z,0
2017-10-31T03:51:41.731Z,0
2017-10-31T03:52:22.143Z,0
2017-10-31T03:53:02.567Z,0
2017-10-31T03:53:43.012Z,0
2017-10-31T03:54:23.335Z,0
2017-10-31T03:55:03.795Z,0
2017-10-31T03:55:44.293Z,0
2017-10-31T03:56:24.638Z,0
2017-10-31T03:57:05.051Z,0
2017-10-31T03:57:45.528Z,0
2017-10-31T03:58:25.908Z,0
2017-10-31T03:59:06.316Z,0
2017-10-31T03:59:46.673Z,0
2017-10-31T04:00:27.168Z,0
2017-10-31T04:01:07.569Z,0
2017-10-31T04:41:06.068Z,0
2017-10-31T04:41:46.452Z,0
2017-10-31T04:42:26.933Z,0
2017-10-31T04:43:07.421Z,0
2017-10-31T04:43:47.977Z,0
2017-10-31T04:44:28.400Z,0
2017-10-31T04:45:08.754Z,0
2017-10-31T04:45:49.152Z,0
2017-10-31T04:46:29.523Z,0
2017-10-31T04:47:09.918Z,0
2017-10-31T04:47:50.449Z,0
2017-10-31T04:48:30.830Z,0
2017-10-31T04:49:11.357Z,0
2017-10-31T04:49:51.674Z,0
2017-10-31T04:50:32.071Z,0
2017-10-31T04:51:12.503Z,0
2017-10-31T04:51:52.969Z,0
2017-10-31T04:52:33.377Z,0
2017-10-31T04:53:13.701Z,0
2017-10-31T04:53:54.190Z,0
2017-10-31T04:54:34.559Z,0
2017-10-31T04:55:14.977Z,0
2017-10-31T04:55:55.429Z,0
2017-10-31T04:56:35.853Z,0
2017-10-31T04:57:16.296Z,0
2017-10-31T04:57:56.692Z,0
2017-10-31T04:58:37.690Z,0
2017-10-31T04:59:18.109Z,0
2017-10-31T04:59:58.529Z,0
2017-10-31T05:00:38.949Z,0
2017-10-31T05:01:19.454Z,0
2017-10-31T05:01:59.777Z,0
2017-10-31T05:02:40.243Z,0
2017-10-31T05:03:20.632Z,0
2017-10-31T05:04:01.042Z,0
2017-10-31T05:04:41.472Z,0
2017-10-31T05:05:21.881Z,0
2017-10-31T05:06:02.313Z,0
2017-10-31T05:06:42.714Z,0
2017-10-31T05:07:23.176Z,0
2017-10-31T05:08:03.693Z,0
2017-10-31T05:08:44.038Z,0
2017-10-31T05:09:24.510Z,0
2017-10-31T05:10:05.021Z,0
2017-10-31T05:10:45.406Z,0
2017-10-31T05:11:26.000Z,0
2017-10-31T05:12:06.395Z,0
2017-10-31T05:12:47.012Z,0
2017-10-31T05:13:27.358Z,0
2017-10-31T05:14:07.808Z,0
2017-10-31T05:14:48.245Z,0
2017-10-31T05:15:28.697Z,0
2017-10-31T05:16:09.071Z,0
2017-10-31T05:16:49.493Z,0
2017-10-31T05:17:29.931Z,0
2017-10-31T05:18:10.318Z,0
2017-10-31T05:18:50.816Z,0
2017-10-31T05:19:31.135Z,0
2017-10-31T05:20:11.575Z,0
2017-10-31T05:20:52.071Z,0
2017-10-31T05:21:32.381Z,0
2017-10-31T05:22:12.865Z,0
2017-10-31T05:22:53.275Z,0
2017-10-31T05:23:33.781Z,0
2017-10-31T05:24:14.164Z,0
2017-10-31T05:24:54.564Z,0
2017-10-31T05:25:34.936Z,0
2017-10-31T05:26:15.373Z,0
2017-10-31T05:26:55.833Z,0
2017-10-31T05:27:36.261Z,0
2017-10-31T05:28:16.653Z,0
2017-10-31T05:28:57.160Z,0
2017-10-31T05:29:37.582Z,0
2017-10-31T05:30:18.090Z,0
2017-10-31T05:30:58.406Z,0
2017-10-31T05:31:38.810Z,0
2017-10-31T05:32:19.216Z,0
2017-10-31T05:32:59.662Z,0
2017-10-31T05:33:40.135Z,0
2017-10-31T05:34:20.475Z,0
2017-10-31T05:35:00.918Z,0
2017-10-31T05:35:41.347Z,0
2017-10-31T05:36:21.707Z,0
2017-10-31T05:37:02.120Z,0
2017-10-31T05:37:42.588Z,0
2017-10-31T05:38:22.956Z,0
2017-10-31T05:39:03.414Z,0
2017-10-31T05:39:43.790Z,0
2017-10-31T05:40:24.251Z,0
2017-10-31T05:41:04.613Z,0
2017-10-31T05:41:45.074Z,0
2017-10-31T05:42:25.446Z,0
2017-10-31T05:43:05.953Z,0
2017-10-31T05:43:46.355Z,0
2017-10-31T05:44:26.767Z,0
2017-10-31T05:45:07.215Z,0
2017-10-31T05:45:47.665Z,0
2017-10-31T05:46:28.178Z,0
2017-10-31T05:47:08.479Z,0
2017-10-31T05:47:48.925Z,0
2017-10-31T05:48:29.376Z,0
2017-10-31T05:49:09.817Z,0
2017-10-31T05:49:50.276Z,0
2017-10-31T05:50:30.720Z,0
2017-10-31T05:51:11.182Z,0
2017-10-31T05:51:51.686Z,0
2017-10-31T05:52:32.059Z,0
2017-10-31T05:53:12.559Z,0
2017-10-31T05:53:52.977Z,0
2017-10-31T05:54:33.461Z,0
2017-10-31T05:57:12.941Z,0
2017-10-31T05:58:04.921Z,0
2017-10-31T05:58:58.750Z,0
2017-10-31T05:59:52.865Z,0
2017-10-31T06:00:45.395Z,0
2017-10-31T06:01:32.912Z,0
2017-10-31T06:02:13.121Z,0
2017-10-31T06:02:53.591Z,0
2017-10-31T06:03:33.880Z,0
2017-10-31T06:04:14.267Z,0
2017-10-31T06:04:54.875Z,0
2017-10-31T06:05:35.247Z,4
2017-10-31T06:06:15.739Z,4
2017-10-31T06:06:56.050Z,4
2017-10-31T06:07:36.498Z,0
2017-10-31T06:08:16.859Z,0
2017-10-31T06:08:57.332Z,4
2017-10-31T06:09:37.715Z,4
2017-10-31T06:10:18.079Z,4
2017-10-31T06:10:58.553Z,0
2017-10-31T06:11:38.992Z,4
2017-10-31T06:12:19.434Z,4
2017-10-31T06:12:59.848Z,4
2017-10-31T06:13:40.202Z,4
2017-10-31T06:14:20.657Z,4
2017-10-31T06:15:01.113Z,8
2017-10-31T06:15:41.484Z,8
2017-10-31T06:16:21.877Z,4
2017-10-31T06:17:02.397Z,8
2017-10-31T06:17:42.715Z,8
2017-10-31T06:18:23.167Z,8
2017-10-31T06:19:03.531Z,8
2017-10-31T06:19:43.977Z,8
2017-10-31T06:20:24.323Z,12
2017-10-31T06:21:04.806Z,12
2017-10-31T06:21:45.272Z,12
2017-10-31T06:22:25.675Z,12
2017-10-31T06:23:06.090Z,16
2017-10-31T06:23:46.477Z,20
2017-10-31T06:24:26.978Z,20
2017-10-31T06:25:07.298Z,20
2017-10-31T06:25:47.719Z,24
2017-10-31T06:26:28.121Z,28
2017-10-31T06:27:08.579Z,32
2017-10-31T06:27:49.002Z,32
2017-10-31T06:28:29.399Z,36
2017-10-31T06:29:09.864Z,40
2017-10-31T06:29:50.365Z,44
2017-10-31T06:30:31.714Z,44
2017-10-31T06:31:14.466Z,48
2017-10-31T06:31:54.721Z,48
2017-10-31T06:32:35.168Z,48
2017-10-31T06:33:15.537Z,48
2017-10-31T06:33:56.089Z,48
2017-10-31T06:34:36.472Z,48
2017-10-31T06:35:16.886Z,48
2017-10-31T06:35:57.365Z,52
2017-10-31T06:36:37.773Z,52
2017-10-31T06:37:18.108Z,48
2017-10-31T06:37:58.537Z,52
2017-10-31T06:38:38.933Z,52
2017-10-31T06:39:19.310Z,52
2017-10-31T06:39:59.680Z,52
2017-10-31T06:40:40.090Z,60
2017-10-31T06:41:20.474Z,64
2017-10-31T06:42:00.825Z,64
2017-10-31T06:42:41.386Z,68
2017-10-31T06:43:21.730Z,76
2017-10-31T06:44:02.278Z,80
2017-10-31T06:44:42.658Z,88
2017-10-31T06:45:23.105Z,92
2017-10-31T06:46:03.508Z,100
2017-10-31T06:46:43.895Z,96
2017-10-31T06:47:24.278Z,96
2017-10-31T06:48:04.596Z,96
2017-10-31T06:48:45.203Z,96
2017-10-31T06:49:25.610Z,92
2017-10-31T06:50:05.987Z,96
2017-10-31T06:50:46.430Z,96
2017-10-31T06:51:26.873Z,96
2017-10-31T06:52:07.288Z,96
2017-10-31T06:52:47.738Z,104
2017-10-31T06:53:28.110Z,108
2017-10-31T06:54:08.526Z,120
2017-10-31T06:54:48.981Z,128
2017-10-31T06:55:29.507Z,132
2017-10-31T06:56:09.838Z,144
2017-10-31T06:56:50.342Z,144
2017-10-31T06:57:30.824Z,148
2017-10-31T06:58:11.124Z,152
2017-10-31T06:58:51.622Z,152
2017-10-31T06:59:32.054Z,152
2017-10-31T07:00:12.557Z,148
2017-10-31T07:00:52.997Z,148
2017-10-31T07:01:33.398Z,148
2017-10-31T07:02:13.816Z,144
2017-10-31T07:02:54.239Z,148
2017-10-31T07:03:37.262Z,144
2017-10-31T07:04:18.389Z,148
2017-10-31T07:04:58.033Z,160
2017-10-31T07:05:38.467Z,180
2017-10-31T07:06:18.837Z,188
2017-10-31T07:06:59.324Z,192
2017-10-31T07:07:39.734Z,192
2017-10-31T07:08:20.143Z,200
2017-10-31T07:09:00.598Z,212
2017-10-31T07:09:40.983Z,232
2017-10-31T07:10:21.398Z,248
2017-10-31T07:11:01.728Z,252
2017-10-31T07:11:42.218Z,252
2017-10-31T07:12:22.772Z,256
2017-10-31T07:13:03.227Z,260
2017-10-31T07:13:43.660Z,264
2017-10-31T07:14:24.056Z,276
2017-10-31T07:15:04.458Z,296
2017-10-31T07:15:44.862Z,320
2017-10-31T07:16:25.241Z,336
2017-10-31T07:17:05.699Z,364
2017-10-31T07:17:46.144Z,396
2017-10-31T07:18:26.575Z,408
2017-10-31T07:19:06.924Z,412
2017-10-31T07:19:47.351Z,396
2017-10-31T07:20:27.752Z,380
2017-10-31T07:21:08.225Z,364
2017-10-31T07:21:48.610Z,336
2017-10-31T07:22:29.191Z,308
2017-10-31T07:23:09.493Z,292
2017-10-31T07:23:49.972Z,276
2017-10-31T07:24:30.338Z,272
2017-10-31T07:25:10.778Z,272
2017-10-31T07:25:51.174Z,280
2017-10-31T07:26:31.631Z,284
2017-10-31T07:27:12.028Z,288
2017-10-31T07:27:52.438Z,284
2017-10-31T07:28:32.880Z,284
2017-10-31T07:29:13.319Z,280
2017-10-31T07:29:53.749Z,280
2017-10-31T07:30:34.095Z,280
2017-10-31T07:31:14.621Z,280
2017-10-31T07:31:55.141Z,284
2017-10-31T07:32:35.558Z,296
2017-10-31T07:33:15.989Z,304
2017-10-31T07:33:56.305Z,320
2017-10-31T07:34:36.863Z,332
2017-10-31T07:35:17.327Z,336
2017-10-31T07:35:57.896Z,344
2017-10-31T07:36:38.267Z,360
2017-10-31T07:37:18.729Z,384
2017-10-31T07:37:59.219Z,416
2017-10-31T07:38:39.573Z,424
2017-10-31T07:39:20.058Z,428
2017-10-31T07:40:00.469Z,416
2017-10-31T07:40:40.828Z,408
2017-10-31T07:41:21.241Z,428
2017-10-31T07:42:01.685Z,476
2017-10-31T07:42:42.182Z,532
2017-10-31T07:43:22.580Z,576
2017-10-31T07:44:03.083Z,616
2017-10-31T07:44:43.512Z,708
2017-10-31T07:45:23.925Z,764
2017-10-31T07:46:04.380Z,800
2017-10-31T07:46:44.808Z,868
2017-10-31T07:47:25.223Z,976
2017-10-31T07:48:05.719Z,1080
2017-10-31T07:48:46.174Z,1156
2017-10-31T07:49:26.659Z,1232
2017-10-31T07:50:07.086Z,1284
2017-10-31T07:50:47.515Z,1336
2017-10-31T07:51:27.917Z,1368
2017-10-31T07:52:08.370Z,1376
2017-10-31T07:52:48.858Z,1372
2017-10-31T07:53:29.229Z,1380
2017-10-31T07:54:09.606Z,1360
2017-10-31T07:54:50.014Z,1356
2017-10-31T07:55:30.510Z,1380
2017-10-31T07:56:10.846Z,1320
2017-10-31T07:56:51.356Z,1248
2017-10-31T07:57:31.802Z,1180
2017-10-31T07:58:12.179Z,1152
2017-10-31T07:58:52.585Z,1120
2017-10-31T07:59:32.979Z,1160
2017-10-31T08:00:13.531Z,1204
2017-10-31T08:00:53.860Z,1276
2017-10-31T08:01:34.302Z,1404
2017-10-31T08:02:14.764Z,1240
2017-10-31T08:02:55.195Z,1232
2017-10-31T08:03:35.641Z,1128
2017-10-31T08:04:15.970Z,1092
2017-10-31T08:04:56.438Z,1044
2017-10-31T08:05:37.189Z,992
2017-10-31T08:06:17.639Z,956
2017-10-31T08:06:57.972Z,912
2017-10-31T08:07:38.402Z,856
2017-10-31T08:08:18.769Z,832
2017-10-31T08:08:59.212Z,816
2017-10-31T08:09:39.673Z,820
2017-10-31T08:10:20.028Z,808
2017-10-31T08:11:00.577Z,792
2017-10-31T08:11:41.152Z,768
2017-10-31T08:12:21.574Z,744
2017-10-31T08:13:02.037Z,780
2017-10-31T08:13:42.460Z,840
2017-10-31T08:14:22.811Z,884
2017-10-31T08:15:03.261Z,952
2017-10-31T08:15:43.636Z,1068
2017-10-31T08:16:24.102Z,1164
2017-10-31T08:17:04.523Z,1204
2017-10-31T08:17:45.049Z,1264
2017-10-31T08:18:25.457Z,1316
2017-10-31T08:19:05.911Z,1364
2017-10-31T08:19:46.215Z,1420
2017-10-31T08:20:26.682Z,1464
2017-10-31T08:21:07.187Z,1472
2017-10-31T08:21:47.633Z,1460
2017-10-31T08:22:28.079Z,1428
2017-10-31T08:23:08.601Z,1404
2017-10-31T08:23:49.074Z,1384
2017-10-31T08:24:29.546Z,1336
2017-10-31T08:25:09.854Z,1260
2017-10-31T08:25:50.336Z,1168
2017-10-31T08:26:30.671Z,1084
2017-10-31T08:27:11.061Z,1012
2017-10-31T08:27:51.468Z,996
2017-10-31T08:28:31.894Z,1040
2017-10-31T08:29:12.410Z,1112
2017-10-31T08:29:52.746Z,1188
2017-10-31T08:30:33.161Z,1240
2017-10-31T08:31:13.724Z,1284
2017-10-31T08:31:54.146Z,1328
2017-10-31T08:32:34.506Z,1364
2017-10-31T08:33:15.064Z,1400
2017-10-31T08:33:55.471Z,1440
2017-10-31T08:34:36.050Z,1536
2017-10-31T08:35:16.630Z,1628
2017-10-31T08:35:57.076Z,1728
2017-10-31T08:36:37.480Z,1836
2017-10-31T08:37:17.932Z,1968
2017-10-31T08:37:58.397Z,2112
2017-10-31T08:38:38.849Z,2200
2017-10-31T08:39:19.207Z,2460
2017-10-31T08:39:59.685Z,2528
2017-10-31T08:40:40.092Z,2640
2017-10-31T08:41:20.501Z,2600
2017-10-31T08:42:01.014Z,2444
2017-10-31T08:42:41.410Z,2368
2017-10-31T08:43:21.820Z,2176
2017-10-31T08:44:02.299Z,1956
2017-10-31T08:44:42.727Z,1828
2017-10-31T08:45:23.399Z,1672
2017-10-31T08:46:03.795Z,1460
2017-10-31T08:46:44.267Z,1360
2017-10-31T08:47:24.817Z,1332
2017-10-31T08:48:05.387Z,1196
2017-10-31T08:48:45.793Z,1116
2017-10-31T08:49:26.241Z,1072
2017-10-31T08:50:06.728Z,1032
2017-10-31T08:50:47.180Z,988
2017-10-31T08:51:27.500Z,948
2017-10-31T08:52:07.915Z,904
2017-10-31T08:52:48.475Z,864
2017-10-31T08:53:28.944Z,832
2017-10-31T08:54:09.326Z,812
2017-10-31T08:54:49.812Z,808
2017-10-31T08:55:30.271Z,816
2017-10-31T08:56:10.729Z,832
2017-10-31T08:56:51.307Z,852
2017-10-31T08:57:31.741Z,884
2017-10-31T08:58:12.127Z,920
2017-10-31T08:58:52.581Z,948
2017-10-31T08:59:32.873Z,972
2017-10-31T09:00:13.347Z,980
2017-10-31T09:00:53.810Z,960
2017-10-31T09:01:34.142Z,920
2017-10-31T09:02:14.549Z,892
2017-10-31T09:02:54.984Z,904
2017-10-31T09:03:35.616Z,960
2017-10-31T09:04:16.077Z,1028
2017-10-31T09:04:56.455Z,1064
2017-10-31T09:05:36.923Z,1108
2017-10-31T09:06:17.340Z,1152
2017-10-31T09:06:57.847Z,1152
2017-10-31T09:07:38.247Z,1080
2017-10-31T09:08:18.683Z,1008
2017-10-31T09:08:59.158Z,988
2017-10-31T09:09:39.506Z,1012
2017-10-31T09:10:19.965Z,1012
2017-10-31T09:11:00.371Z,960
2017-10-31T09:11:40.827Z,860
2017-10-31T09:12:21.224Z,768
2017-10-31T09:13:01.616Z,704
2017-10-31T09:13:42.177Z,716
2017-10-31T09:14:22.813Z,776
2017-10-31T09:15:03.176Z,800
2017-10-31T09:15:43.738Z,840
2017-10-31T09:16:24.115Z,924
2017-10-31T09:17:04.560Z,1044
2017-10-31T09:17:45.076Z,1196
2017-10-31T09:18:25.373Z,1332
2017-10-31T09:19:05.885Z,1352
2017-10-31T09:19:46.397Z,1224
2017-10-31T09:20:26.848Z,1052
2017-10-31T09:21:07.564Z,916
2017-10-31T09:21:47.938Z,836
2017-10-31T09:22:28.534Z,800
2017-10-31T09:23:08.835Z,780
2017-10-31T09:23:49.365Z,764
2017-10-31T09:24:30.769Z,752
2017-10-31T09:25:11.289Z,792
2017-10-31T09:25:51.641Z,816
2017-10-31T09:26:32.086Z,816
2017-10-31T09:27:12.527Z,872
2017-10-31T09:27:52.930Z,960
2017-10-31T09:28:33.422Z,1064
2017-10-31T09:29:13.776Z,1152
2017-10-31T09:29:54.220Z,1236
2017-10-31T09:30:34.674Z,1288
2017-10-31T09:31:15.196Z,1280
2017-10-31T09:31:55.570Z,1300
2017-10-31T09:32:36.237Z,1284
2017-10-31T09:33:17.283Z,1268
2017-10-31T09:33:57.002Z,1296
2017-10-31T09:34:37.496Z,1348
2017-10-31T09:35:17.897Z,1428
2017-10-31T09:35:58.247Z,1516
2017-10-31T09:36:38.692Z,1596
2017-10-31T09:37:19.192Z,1632
2017-10-31T09:38:00.617Z,1584
2017-10-31T09:38:41.546Z,1420
2017-10-31T09:39:22.391Z,1208
2017-10-31T09:40:03.075Z,1152
2017-10-31T09:40:43.386Z,1236
2017-10-31T09:41:23.851Z,1336
2017-10-31T09:42:04.236Z,1464
2017-10-31T09:42:44.646Z,1576
2017-10-31T09:43:25.077Z,1656
2017-10-31T09:44:05.542Z,1692
2017-10-31T09:44:46.253Z,1716
2017-10-31T09:45:26.664Z,1716
2017-10-31T09:46:07.326Z,1688
2017-10-31T09:46:47.940Z,1624
2017-10-31T09:47:28.326Z,1572
2017-10-31T09:48:09.182Z,1520
2017-10-31T09:48:49.678Z,1468
2017-10-31T09:49:30.392Z,1400
2017-10-31T09:50:11.022Z,1292
2017-10-31T09:50:51.436Z,1216
2017-10-31T09:51:31.889Z,1188
2017-10-31T09:52:12.354Z,1176
2017-10-31T09:52:52.744Z,1196
2017-10-31T09:53:33.184Z,1224
2017-10-31T09:54:13.524Z,1328
2017-10-31T09:54:54.059Z,1428
2017-10-31T09:55:34.469Z,1504
2017-10-31T09:56:14.880Z,1540
2017-10-31T09:56:55.324Z,1652
2017-10-31T09:57:35.762Z,1504
2017-10-31T09:58:16.227Z,1392
2017-10-31T09:58:56.722Z,1316
2017-10-31T09:59:37.041Z,1356
2017-10-31T10:00:17.599Z,1480
2017-10-31T10:00:58.059Z,1596
2017-10-31T10:01:38.486Z,1684
2017-10-31T10:02:18.997Z,1900
2017-10-31T10:42:20.751Z,1856
2017-10-31T10:43:01.214Z,1948
2017-10-31T10:43:42.484Z,1876
2017-10-31T10:44:22.736Z,1748
2017-10-31T10:45:03.277Z,1900
2017-10-31T10:45:43.772Z,1980
2017-10-31T10:46:24.120Z,1932
2017-10-31T10:47:04.552Z,1852
2017-10-31T10:47:45.134Z,1788
2017-10-31T10:48:25.362Z,1752
2017-10-31T10:49:05.751Z,1728
2017-10-31T10:49:46.169Z,1716
2017-10-31T10:50:26.525Z,1688
2017-10-31T10:51:07.013Z,1704
2017-10-31T10:51:47.429Z,1708
2017-10-31T10:52:27.850Z,1708
2017-10-31T10:53:08.282Z,1716
2017-10-31T10:53:48.636Z,1748
2017-10-31T10:54:29.110Z,1764
2017-10-31T10:55:09.622Z,1736
2017-10-31T10:55:50.078Z,1728
2017-10-31T10:56:30.439Z,1680
2017-10-31T10:57:10.887Z,1700
2017-10-31T10:57:51.330Z,1756
2017-10-31T10:58:31.692Z,1764
2017-10-31T10:59:12.179Z,1828
2017-10-31T10:59:52.695Z,1936
2017-10-31T11:00:33.118Z,2044
2017-10-31T11:01:13.569Z,2144
2017-10-31T11:01:53.995Z,2212
2017-10-31T11:02:34.464Z,2272
2017-10-31T11:03:14.926Z,2288
2017-10-31T11:03:55.306Z,2348
2017-10-31T11:04:35.808Z,2104
2017-10-31T11:05:16.273Z,1872
2017-10-31T11:05:56.728Z,1816
2017-10-31T11:06:37.246Z,1772